Time;durP1;ratioP1;P1;durP2;ratioP2;P2;SDS_P1;SDS_P2;PMS_P1;PMS_P2;Temp;Humidity;BMP_temperature;BMP_pressure;BME280_temperature;BME280_humidity;BME280_pressure;Samples;Min_cycle;Max_cycle;Signal;HPM_P1;HPM_P2
2022/12/06 00:01:23;;;;;;;57.00;12.60;;;;;;;21.24;35.98;102434.41;21030525;28;20024;-59
2022/12/06 00:11:30;;;;;;;50.78;10.93;;;;;;;21.24;35.83;102449.16;21044770;28;20074;-60
2022/12/06 00:21:35;;;;;;;44.95;11.85;;;;;;;21.36;36.05;102456.69;21058424;28;20044;-60
2022/12/06 00:31:40;;;;;;;46.08;9.40;;;;;;;21.40;35.20;102458.72;21049602;28;20048;-61
2022/12/06 00:41:42;;;;;;;34.58;8.27;;;;;;;21.45;35.40;102469.13;21041412;28;20089;-61
2022/12/06 00:51:43;;;;;;;32.85;9.02;;;;;;;21.47;35.50;102487.25;21036300;28;20044;-61
2022/12/06 01:01:47;;;;;;;25.58;7.43;;;;;;;21.54;35.03;102478.78;21071347;28;20040;-61
2022/12/06 01:11:49;;;;;;;35.40;7.50;;;;;;;21.57;35.48;102487.47;21065794;28;20097;-61
2022/12/06 01:21:53;;;;;;;24.88;6.95;;;;;;;21.62;35.00;102488.66;21044993;28;20040;-60
2022/12/06 01:31:54;;;;;;;21.10;5.85;;;;;;;21.65;34.89;102504.88;21043117;28;20040;-60
2022/12/06 01:41:55;;;;;;;15.68;6.07;;;;;;;21.65;34.65;102500.16;21053895;28;20052;-60
2022/12/06 01:52:06;;;;;;;17.75;5.70;;;;;;;21.66;34.82;102507.41;21051159;28;20101;-60
2022/12/06 02:02:08;;;;;;;19.08;5.57;;;;;;;21.57;34.48;102478.25;21042305;28;20036;-60
2022/12/06 02:12:14;;;;;;;13.40;4.43;;;;;;;21.70;34.36;102516.97;21057199;28;20051;-61
2022/12/06 02:22:43;;;;;;;12.90;4.72;;;;;;;21.72;34.67;102513.94;21069638;28;20055;-60
2022/12/06 02:32:53;;;;;;;12.15;3.75;;;;;;;21.73;33.71;102496.97;21038491;28;20314;-61
2022/12/06 02:43:02;;;;;;;8.65;4.05;;;;;;;21.73;33.71;102508.13;21063099;28;20472;-61
2022/12/06 02:53:07;;;;;;;8.88;3.42;;;;;;;21.75;33.57;102480.00;21065410;28;20089;-60
2022/12/06 03:04:02;;;;;;;7.28;3.40;;;;;;;21.70;34.00;102475.19;21086798;28;20032;-61
2022/12/06 03:14:08;;;;;;;7.03;3.38;;;;;;;21.73;33.75;102469.13;20995911;28;20055;-61
2022/12/06 03:24:13;;;;;;;8.32;3.65;;;;;;;21.72;33.46;102478.56;21086122;28;20044;-60
2022/12/06 03:34:28;;;;;;;5.68;3.42;;;;;;;21.70;33.51;102480.75;21081121;28;20490;-60
2022/12/06 03:44:30;;;;;;;6.38;3.20;;;;;;;21.71;33.35;102485.22;21079802;28;20415;-60
2022/12/06 03:54:31;;;;;;;8.98;3.47;;;;;;;21.69;32.94;102487.41;21080832;28;20036;-61
2022/12/06 04:04:32;;;;;;;7.25;3.53;;;;;;;21.69;33.04;102498.56;21075920;28;20048;-60
2022/12/06 04:14:38;;;;;;;7.57;3.47;;;;;;;21.67;33.31;102503.56;21075917;28;20528;-60
2022/12/06 04:24:39;;;;;;;6.90;3.90;;;;;;;21.66;33.07;102499.06;21078516;28;20052;-60
2022/12/06 04:45:00;;;;;;;12.93;3.40;;;;;;;21.59;33.85;102473.31;21071186;28;20032;-62
2022/12/06 04:55:04;;;;;;;8.50;3.13;;;;;;;21.51;34.62;102466.19;21048868;28;20044;-62
2022/12/06 05:05:05;;;;;;;8.27;3.33;;;;;;;21.61;34.45;102468.31;21079765;28;20480;-60
2022/12/06 05:15:07;;;;;;;12.90;4.18;;;;;;;21.69;34.60;102445.63;21080829;28;20049;-60
2022/12/06 05:25:09;;;;;;;8.25;3.53;;;;;;;21.73;34.17;102441.25;21077472;28;20048;-60
2022/12/06 05:35:10;;;;;;;6.53;3.00;;;;;;;21.75;34.24;102455.75;21051136;28;20090;-60
2022/12/06 05:45:12;;;;;;;4.88;3.05;;;;;;;21.78;34.26;102449.69;21074648;28;20045;-61
2022/12/06 05:55:13;;;;;;;10.13;3.50;;;;;;;21.80;34.20;102457.81;21054730;28;20037;-60
2022/12/06 06:05:17;;;;;;;7.28;3.20;;;;;;;21.76;34.49;102446.34;21042766;28;20044;-61
2022/12/06 06:15:18;;;;;;;6.25;2.50;;;;;;;21.80;34.31;102467.00;21075527;28;20101;-60
2022/12/06 06:25:20;;;;;;;7.75;2.72;;;;;;;21.42;34.38;102386.06;21073596;28;20399;-61
2022/12/06 06:35:21;;;;;;;3.85;2.15;;;;;;;21.73;34.22;102441.25;21073252;28;20036;-61
2022/12/06 06:45:26;;;;;;;4.53;2.53;;;;;;;21.78;33.93;102444.13;21074120;28;20056;-61
2022/12/06 06:55:29;;;;;;;3.75;2.30;;;;;;;21.63;34.19;102416.00;21072380;28;20483;-61
2022/12/06 07:05:30;;;;;;;6.68;2.35;;;;;;;21.74;34.12;102444.88;21073436;28;20062;-61
2022/12/06 07:15:35;;;;;;;4.53;2.15;;;;;;;21.72;34.25;102456.28;21075203;28;20016;-61
2022/12/06 07:25:36;;;;;;;3.47;2.08;;;;;;;21.71;34.15;102449.00;21076983;28;20048;-63
2022/12/06 07:35:37;;;;;;;3.78;2.33;;;;;;;21.68;34.03;102438.38;21089123;28;20044;-60
2022/12/06 07:45:39;;;;;;;4.55;2.00;;;;;;;21.66;33.82;102451.69;21087047;28;20039;-61
2022/12/06 07:55:40;;;;;;;3.13;2.00;;;;;;;21.61;34.16;102429.31;21085275;28;20109;-61
2022/12/06 08:05:42;;;;;;;3.50;2.28;;;;;;;21.63;33.94;102423.50;21083760;28;20395;-61
2022/12/06 08:15:46;;;;;;;3.55;2.30;;;;;;;21.51;33.69;102404.06;21080560;28;20070;-61
2022/12/06 08:26:01;;;;;;;3.05;2.00;;;;;;;21.55;33.69;102427.53;21081512;28;20040;-61
2022/12/06 08:36:16;;;;;;;2.97;2.22;;;;;;;21.52;33.80;102422.47;21081612;28;20048;-61
2022/12/06 08:46:17;;;;;;;3.35;1.85;;;;;;;21.53;33.00;102418.56;21081747;28;20044;-61
2022/12/06 08:56:19;;;;;;;4.15;2.13;;;;;;;21.50;33.87;102435.81;21081314;28;20036;-61
2022/12/06 09:06:21;;;;;;;3.38;2.08;;;;;;;21.49;33.48;102411.84;21076529;28;20047;-62
2022/12/06 09:16:23;;;;;;;3.42;1.88;;;;;;;21.46;33.35;102392.81;21077411;28;20065;-61
2022/12/06 09:26:25;;;;;;;3.40;2.22;;;;;;;21.44;33.63;102397.78;21073534;28;20039;-61
2022/12/06 09:36:29;;;;;;;1.98;1.77;;;;;;;21.36;33.38;102389.84;21076589;28;20043;-61
2022/12/06 09:46:54;;;;;;;3.50;2.30;;;;;;;21.35;33.79;102382.56;21077343;28;20040;-61
2022/12/06 09:57:20;;;;;;;2.72;2.05;;;;;;;21.30;33.63;102372.16;21069343;28;20044;-61
2022/12/06 10:07:40;;;;;;;4.32;2.28;;;;;;;21.31;33.69;102371.94;21053821;28;20051;-61
2022/12/06 10:18:05;;;;;;;2.08;1.88;;;;;;;21.29;33.70;102370.47;21071942;28;20048;-61
2022/12/06 10:28:41;;;;;;;2.13;1.75;;;;;;;21.23;33.89;102369.53;21070839;28;20044;-62
2022/12/06 10:39:04;;;;;;;2.13;1.92;;;;;;;21.22;33.71;102372.56;21067604;28;20032;-62
2022/12/06 10:49:26;;;;;;;2.15;1.88;;;;;;;21.26;34.00;102384.91;21069226;28;20368;-62
2022/12/06 10:59:43;;;;;;;2.40;2.05;;;;;;;21.24;33.56;102387.91;21065456;28;20032;-62
2022/12/06 11:09:48;;;;;;;2.30;1.77;;;;;;;21.17;33.73;102364.97;21082083;28;20056;-62
2022/12/06 11:19:55;;;;;;;2.03;1.75;;;;;;;21.23;33.64;102391.81;21082802;28;20089;-61
2022/12/06 11:29:57;;;;;;;2.25;1.60;;;;;;;21.21;33.78;102388.44;21083211;28;20040;-61
2022/12/06 11:40:17;;;;;;;1.80;1.60;;;;;;;21.20;33.93;102392.28;21078029;28;20044;-61
2022/12/06 11:50:23;;;;;;;2.53;1.90;;;;;;;21.21;33.46;102405.13;21071789;28;20051;-61
2022/12/06 12:00:28;;;;;;;3.17;1.90;;;;;;;21.15;33.71;102400.53;21073923;28;20061;-61
2022/12/06 12:10:30;;;;;;;2.28;1.80;;;;;;;21.20;33.88;102389.50;21067889;28;20047;-61
2022/12/06 12:20:37;;;;;;;2.30;1.58;;;;;;;21.15;33.98;102399.69;21069740;28;20036;-61
2022/12/06 12:30:50;;;;;;;2.55;1.60;;;;;;;21.15;33.72;102411.66;21044987;28;20048;-61
2022/12/06 12:41:00;;;;;;;2.17;1.73;;;;;;;21.19;33.99;102429.56;21036982;28;20044;-61
2022/12/06 12:51:05;;;;;;;3.78;1.50;;;;;;;21.21;34.83;102432.09;21075417;28;20059;-61
2022/12/06 13:01:24;;;;;;;3.45;1.45;;;;;;;21.17;35.09;102442.91;21063997;28;20048;-60
2022/12/06 13:11:27;;;;;;;;;;;;;;;21.24;34.87;102442.75;21078326;28;20093;-61
2022/12/06 13:21:38;;;;;;;17.58;2.03;;;;;;;21.28;35.13;102463.44;21055297;28;19920;-60
2022/12/06 13:31:40;;;;;;;5.15;1.80;;;;;;;21.26;35.43;102449.78;21021664;28;20401;-60
2022/12/06 13:52:01;;;;;;;7.00;1.90;;;;;;;21.24;35.39;102449.16;20995156;28;20044;-60
2022/12/06 14:02:56;;;;;;;6.63;2.03;;;;;;;21.19;35.42;102451.84;20990845;28;20120;-59
2022/12/06 14:12:59;;;;;;;5.38;1.60;;;;;;;21.23;35.05;102457.78;20958632;28;20086;-59
2022/12/06 14:23:01;;;;;;;5.43;1.38;;;;;;;21.25;35.27;102439.72;20991837;28;20106;-60
2022/12/06 14:33:24;;;;;;;3.63;1.80;;;;;;;21.18;35.21;102466.88;20991856;28;20041;-60
2022/12/06 14:43:31;;;;;;;3.90;1.70;;;;;;;21.23;35.34;102447.47;20971645;28;20067;-60
2022/12/06 14:53:37;;;;;;;3.20;1.83;;;;;;;21.21;35.14;102455.25;21007177;28;20044;-60
2022/12/06 15:03:41;;;;;;;2.78;1.83;;;;;;;21.19;35.31;102457.41;21006787;28;20059;-60
2022/12/06 15:13:42;;;;;;;2.97;1.63;;;;;;;21.20;35.27;102447.13;21005674;28;20496;-60
2022/12/06 15:24:03;;;;;;;1.80;1.50;;;;;;;21.19;35.52;102432.34;21004999;28;20063;-60
2022/12/06 15:34:21;;;;;;;2.80;1.70;;;;;;;21.12;35.18;102423.31;21003584;28;20055;-60
2022/12/06 15:44:25;;;;;;;2.40;1.70;;;;;;;21.17;35.39;102409.50;21003656;28;20037;-60
2022/12/06 15:54:29;;;;;;;2.83;1.75;;;;;;;21.15;35.54;102411.66;21001844;28;20066;-60
2022/12/06 16:04:32;;;;;;;3.13;1.40;;;;;;;21.15;35.26;102394.97;21002289;28;20036;-59
2022/12/06 16:14:33;;;;;;;2.67;1.70;;;;;;;21.13;35.26;102360.97;21001181;28;20051;-60
2022/12/06 16:24:34;;;;;;;2.42;1.88;;;;;;;21.12;35.56;102358.44;21000439;28;20036;-60
2022/12/06 16:34:36;;;;;;;3.03;1.65;;;;;;;21.10;35.37;102330.00;20999999;28;20083;-60
2022/12/06 16:44:49;;;;;;;2.50;1.65;;;;;;;21.10;35.03;102314.16;20999063;28;20484;-59
2022/12/06 16:54:53;;;;;;;2.42;1.65;;;;;;;21.06;35.43;102285.97;20997995;28;20400;-60
2022/12/06 17:04:56;;;;;;;4.05;1.73;;;;;;;20.96;35.63;102255.16;20997342;28;20040;-60
2022/12/06 17:14:58;;;;;;;4.93;2.15;;;;;;;21.10;35.59;102263.22;20996261;28;20041;-60
2022/12/06 17:25:00;;;;;;;4.85;2.13;;;;;;;21.11;35.36;102257.38;20994643;28;20048;-61
2022/12/06 17:35:02;;;;;;;3.15;2.03;;;;;;;21.13;35.79;102246.84;20999271;28;20159;-61
2022/12/06 17:45:04;;;;;;;3.95;1.90;;;;;;;21.06;35.73;102229.47;20996648;28;20036;-61
2022/12/06 17:55:05;;;;;;;3.83;1.90;;;;;;;21.16;35.87;102245.50;20993714;28;20032;-60
2022/12/06 18:05:07;;;;;;;3.22;1.95;;;;;;;21.16;35.88;102240.78;20992658;28;20094;-60
2022/12/06 18:15:36;;;;;;;2.50;1.83;;;;;;;21.15;36.07;102239.09;20991560;28;20081;-60
2022/12/06 18:25:37;;;;;;;3.60;1.77;;;;;;;21.17;36.08;102223.00;20991393;28;20098;-61
2022/12/06 18:35:38;;;;;;;2.97;1.95;;;;;;;21.19;36.35;102212.44;20990148;28;20102;-60
2022/12/06 18:45:42;;;;;;;4.45;2.05;;;;;;;21.23;36.50;102207.22;20989186;28;20106;-61
2022/12/06 18:55:43;;;;;;;5.68;1.98;;;;;;;21.29;36.46;102218.19;20988909;28;20040;-61
2022/12/06 19:05:45;;;;;;;8.63;1.77;;;;;;;21.18;36.81;102185.72;21016696;28;20078;-61
2022/12/06 19:15:46;;;;;;;7.40;1.92;;;;;;;21.36;36.88;102206.91;21071927;28;20028;-61
2022/12/06 19:25:48;;;;;;;6.60;1.70;;;;;;;21.40;36.77;102193.34;21077687;28;20442;-61
2022/12/06 19:35:57;;;;;;;7.20;1.90;;;;;;;21.41;37.25;102192.22;21056433;28;20040;-60
2022/12/06 19:46:19;;;;;;;51.85;5.20;;;;;;;21.42;37.02;102205.06;21001775;28;20110;-61
2022/12/06 19:56:21;;;;;;;60.58;6.38;;;;;;;21.46;36.67;102217.38;21001426;28;20036;-61
2022/12/06 20:06:25;;;;;;;67.07;7.88;;;;;;;21.47;37.21;102221.84;21000362;28;20048;-61
2022/12/06 20:16:27;;;;;;;159.00;14.75;;;;;;;21.50;36.92;102221.34;21027683;28;20548;-59
2022/12/06 20:26:30;;;;;;;266.55;23.48;;;;;;;21.52;37.61;102241.41;21086827;28;20048;-61
2022/12/06 20:36:35;;;;;;;248.43;23.25;;;;;;;21.63;36.95;102264.72;21090507;28;20117;-60
2022/12/06 20:46:36;;;;;;;230.45;23.10;;;;;;;21.63;36.96;102273.09;21057570;28;20485;-61
2022/12/06 20:56:39;;;;;;;191.75;17.42;;;;;;;21.62;37.71;102269.44;21028684;28;20032;-65
2022/12/06 21:06:41;;;;;;;169.13;16.63;;;;;;;21.65;37.69;102249.44;21069480;28;20094;-61
2022/12/06 21:16:45;;;;;;;119.88;12.95;;;;;;;21.63;37.71;102246.06;21045590;28;20048;-60
2022/12/06 21:26:49;;;;;;;87.13;10.52;;;;;;;21.63;37.40;102256.38;21044881;28;20407;-62
2022/12/06 21:36:51;;;;;;;93.55;10.73;;;;;;;21.22;37.23;102189.69;21079106;28;20384;-62
2022/12/06 21:46:52;;;;;;;149.98;15.45;;;;;;;21.67;38.66;102238.91;21060938;28;20112;-61
2022/12/06 21:56:55;;;;;;;194.07;19.38;;;;;;;21.72;40.04;102230.59;21069052;28;20172;-63
2022/12/06 22:06:57;;;;;;;162.13;15.98;;;;;;;21.75;40.70;102227.28;21068178;28;20078;-62
2022/12/06 22:16:58;;;;;;;97.90;12.20;;;;;;;21.78;40.67;102231.53;21065870;28;20101;-63
2022/12/06 22:26:59;;;;;;;143.27;12.75;;;;;;;21.90;40.63;102228.63;21058999;28;20094;-61
2022/12/06 22:37:01;;;;;;;118.20;12.40;;;;;;;21.90;40.46;102206.31;21074401;28;20047;-61
2022/12/06 22:47:02;;;;;;;128.60;11.95;;;;;;;21.95;40.17;102217.56;21073381;28;20040;-63
2022/12/06 22:57:04;;;;;;;112.57;11.70;;;;;;;21.96;40.34;102217.28;21055015;28;20106;-61
2022/12/06 23:07:05;;;;;;;100.30;10.40;;;;;;;21.97;40.00;102212.56;21074668;28;20024;-60
2022/12/06 23:17:06;;;;;;;80.07;8.63;;;;;;;22.00;39.82;102195.34;21081188;28;20093;-61
2022/12/06 23:27:08;;;;;;;113.20;10.65;;;;;;;22.03;40.31;102194.78;21030907;28;20047;-62
2022/12/06 23:37:14;;;;;;;79.78;9.07;;;;;;;22.04;39.91;102202.91;21062215;28;20048;-62
2022/12/06 23:47:16;;;;;;;84.07;8.05;;;;;;;22.04;39.88;102210.44;21041862;28;20483;-62
2022/12/06 23:57:17;;;;;;;56.00;7.13;;;;;;;22.04;39.71;102213.22;21039488;28;20077;-61
